| time (UTC) | temp F | wind direction | speed knots | gust knots | rain 1hr in | rain 24hr in | rain mn in | humidity % | barometer mb |
| 20260508052011 | 44 | 0 | 0.0 | 0.0 | 0.00 | 0.01 | 0.00 | 90 | 1009.2 |
| 20260508051510 | 44 | 0 | 0.0 | 0.0 | 0.00 | 0.01 | 0.00 | 90 | 1009.2 |
| 20260508050510 | 44 | 0 | 0.0 | 0.0 | 0.00 | 0.01 | 0.00 | 90 | 1009.1 |
| 20260508045511 | 44 | 0 | 0.0 | 0.0 | 0.00 | 0.01 | 0.00 | 90 | 1009.1 |
| 20260508045011 | 44 | 0 | 0.0 | 0.0 | 0.00 | 0.01 | 0.00 | 90 | 1009.1 |
| 20260508044511 | 44 | 0 | 0.0 | 0.0 | 0.00 | 0.01 | 0.00 | 89 | 1009.1 |
| 20260508044010 | 44 | 0 | 0.0 | 0.0 | 0.00 | 0.01 | 0.00 | 89 | 1009.0 |
| 20260508043011 | 44 | 0 | 0.0 | 0.0 | 0.00 | 0.01 | 0.00 | 89 | 1008.9 |
| 20260508042511 | 44 | 0 | 0.0 | 0.0 | 0.00 | 0.01 | 0.00 | 89 | 1008.9 |
| 20260508042011 | 44 | 0 | 0.0 | 0.0 | 0.00 | 0.01 | 0.00 | 89 | 1008.9 |
| 20260508041011 | 44 | 0 | 0.0 | 0.0 | 0.00 | 0.01 | 0.00 | 89 | 1008.7 |
| 20260508040510 | 44 | 0 | 0.0 | 0.0 | 0.00 | 0.01 | 0.00 | 89 | 1008.7 |
| 20260508040011 | 44 | 0 | 0.0 | 0.0 | 0.00 | 0.01 | 0.00 | 89 | 1008.7 |
| 20260508035510 | 44 | 0 | 0.0 | 0.0 | 0.00 | 0.01 | 0.00 | 89 | 1008.7 |
| 20260508035010 | 44 | 0 | 0.0 | 0.0 | 0.00 | 0.01 | 0.00 | 89 | 1008.7 |
| 20260508034510 | 44 | 0 | 0.0 | 0.0 | 0.00 | 0.01 | 0.00 | 89 | 1008.7 |
| 20260508034010 | 44 | 0 | 0.0 | 0.0 | 0.00 | 0.01 | 0.00 | 89 | 1008.7 |
| 20260508033011 | 44 | 0 | 0.0 | 0.0 | 0.00 | 0.01 | 0.00 | 89 | 1008.7 |
| 20260508032510 | 44 | 0 | 0.0 | 0.0 | 0.00 | 0.01 | 0.00 | 89 | 1008.6 |
| 20260508032011 | 44 | 0 | 0.0 | 0.0 | 0.00 | 0.01 | 0.00 | 89 | 1008.6 |
| 20260508031511 | 44 | 0 | 0.0 | 0.0 | 0.00 | 0.01 | 0.00 | 89 | 1008.6 |
| 20260508031011 | 44 | 0 | 0.0 | 0.0 | 0.00 | 0.01 | 0.00 | 89 | 1008.6 |
| 20260508030511 | 44 | 0 | 0.0 | 0.0 | 0.00 | 0.01 | 0.00 | 89 | 1008.6 |
| 20260508030011 | 44 | 0 | 0.0 | 0.0 | 0.00 | 0.01 | 0.00 | 89 | 1008.6 |
| 20260508025011 | 44 | 0 | 0.0 | 0.0 | 0.00 | 0.01 | 0.00 | 89 | 1008.5 |
| 20260508024011 | 44 | 0 | 0.0 | 0.0 | 0.00 | 0.01 | 0.00 | 89 | 1008.5 |
| 20260508023511 | 44 | 0 | 0.0 | 0.0 | 0.00 | 0.01 | 0.00 | 89 | 1008.5 |
| 20260508023010 | 44 | 0 | 0.0 | 0.0 | 0.00 | 0.01 | 0.00 | 89 | 1008.4 |
| 20260508022511 | 44 | 0 | 0.0 | 0.0 | 0.00 | 0.01 | 0.00 | 89 | 1008.4 |
| 20260508021510 | 44 | 0 | 0.0 | 0.0 | 0.00 | 0.01 | 0.00 | 89 | 1008.3 |
| 20260508021011 | 44 | 0 | 0.0 | 0.0 | 0.00 | 0.01 | 0.00 | 89 | 1008.3 |
| 20260508020510 | 44 | 0 | 0.0 | 0.0 | 0.00 | 0.01 | 0.00 | 89 | 1008.3 |
| 20260508020011 | 45 | 0 | 0.0 | 0.0 | 0.00 | 0.01 | 0.00 | 89 | 1008.3 |
| 20260508015511 | 44 | 0 | 0.0 | 0.0 | 0.00 | 0.01 | 0.00 | 89 | 1008.2 |
| 20260508015011 | 45 | 0 | 0.0 | 0.0 | 0.00 | 0.01 | 0.00 | 89 | 1008.2 |
| 20260508014510 | 45 | 0 | 0.0 | 0.0 | 0.00 | 0.01 | 0.00 | 89 | 1008.2 |
| 20260508014011 | 45 | 0 | 0.0 | 0.0 | 0.00 | 0.01 | 0.00 | 89 | 1008.2 |
| 20260508013511 | 45 | 0 | 0.0 | 0.0 | 0.00 | 0.01 | 0.00 | 89 | 1008.2 |
| 20260508013011 | 45 | 0 | 0.0 | 0.0 | 0.00 | 0.01 | 0.00 | 88 | 1008.2 |
| 20260508012010 | 45 | 0 | 0.0 | 0.0 | 0.00 | 0.01 | 0.00 | 88 | 1008.2 |
| 20260508011510 | 45 | 0 | 0.0 | 0.0 | 0.00 | 0.01 | 0.00 | 88 | 1008.2 |
| 20260508011010 | 45 | 0 | 0.0 | 0.0 | 0.00 | 0.01 | 0.00 | 88 | 1008.2 |
| 20260508010011 | 45 | 0 | 0.0 | 0.0 | 0.00 | 0.01 | 0.00 | 88 | 1008.3 |
| 20260508005511 | 45 | 0 | 0.0 | 0.0 | 0.00 | 0.01 | 0.00 | 88 | 1008.2 |
| 20260508005011 | 45 | 0 | 0.0 | 0.0 | 0.00 | 0.01 | 0.00 | 88 | 1008.3 |
| 20260508004011 | 45 | 0 | 0.0 | 0.0 | 0.00 | 0.01 | 0.00 | 88 | 1008.2 |
| 20260508003511 | 45 | 0 | 0.0 | 0.0 | 0.00 | 0.01 | 0.00 | 88 | 1008.2 |
| 20260508002511 | 45 | 0 | 0.0 | 0.0 | 0.00 | 0.01 | 0.00 | 88 | 1008.2 |
| 20260508002011 | 45 | 0 | 0.0 | 0.0 | 0.00 | 0.01 | 0.00 | 88 | 1008.2 |
| 20260508001510 | 45 | 0 | 0.0 | 0.0 | 0.00 | 0.01 | 0.00 | 88 | 1008.1 |
| 20260508001010 | 45 | 0 | 0.0 | 0.0 | 0.00 | 0.01 | 0.00 | 88 | 1008.1 |
| 20260508000511 | 45 | 0 | 0.0 | 0.0 | 0.00 | 0.01 | 0.00 | 87 | 1008.2 |
| 20260507235511 | 45 | 266 | 0.0 | 2.6 | 0.00 | 0.01 | 0.00 | 87 | 1008.1 |
| 20260507235011 | 45 | 266 | 0.0 | 2.6 | 0.00 | 0.01 | 0.00 | 87 | 1008.1 |
| 20260507233011 | 45 | 265 | 0.9 | 2.6 | 0.00 | 0.01 | 0.00 | 87 | 1008.1 |
| 20260507231511 | 46 | 257 | 0.9 | 2.6 | 0.00 | 0.01 | 0.00 | 86 | 1008.0 |
| 20260507231011 | 46 | 251 | 0.9 | 3.5 | 0.00 | 0.01 | 0.00 | 86 | 1008.0 |
| 20260507230510 | 46 | 251 | 0.9 | 3.5 | 0.00 | 0.01 | 0.00 | 86 | 1008.0 |
| 20260507230013 | 46 | 255 | 0.9 | 2.6 | 0.00 | 0.01 | 0.00 | 86 | 1008.0 |
| 20260507225511 | 45 | 255 | 0.0 | 2.6 | 0.00 | 0.01 | 0.01 | 86 | 1007.9 |
| 20260507225010 | 45 | 0 | 0.0 | 0.0 | 0.00 | 0.01 | 0.01 | 85 | 1007.9 |
| 20260507224010 | 45 | 0 | 0.0 | 0.0 | 0.00 | 0.01 | 0.01 | 85 | 1007.8 |
| 20260507223010 | 46 | 0 | 0.0 | 0.0 | 0.00 | 0.01 | 0.01 | 85 | 1007.7 |
| 20260507222511 | 46 | 0 | 0.0 | 0.0 | 0.00 | 0.01 | 0.01 | 86 | 1007.7 |
| 20260507222011 | 45 | 0 | 0.0 | 0.0 | 0.00 | 0.01 | 0.01 | 86 | 1007.7 |
| 20260507221510 | 45 | 0 | 0.0 | 0.0 | 0.00 | 0.01 | 0.01 | 86 | 1007.7 |
| 20260507221011 | 45 | 0 | 0.0 | 0.0 | 0.00 | 0.01 | 0.01 | 86 | 1007.7 |
| 20260507220510 | 45 | 0 | 0.0 | 0.0 | 0.00 | 0.01 | 0.01 | 86 | 1007.6 |
| 20260507220011 | 45 | 0 | 0.0 | 0.0 | 0.00 | 0.01 | 0.01 | 86 | 1007.5 |
| 20260507215011 | 46 | 0 | 0.0 | 0.0 | 0.00 | 0.01 | 0.01 | 86 | 1007.6 |
| 20260507214510 | 46 | 0 | 0.0 | 0.0 | 0.00 | 0.01 | 0.01 | 86 | 1007.5 |
| 20260507214011 | 46 | 0 | 0.0 | 0.0 | 0.00 | 0.01 | 0.01 | 86 | 1007.6 |
| 20260507213010 | 46 | 0 | 0.0 | 0.0 | 0.00 | 0.01 | 0.01 | 86 | 1007.4 |
| 20260507212510 | 46 | 0 | 0.0 | 0.0 | 0.00 | 0.01 | 0.01 | 86 | 1007.4 |
| 20260507212011 | 46 | 0 | 0.0 | 0.0 | 0.00 | 0.01 | 0.01 | 86 | 1007.3 |
| 20260507211511 | 46 | 0 | 0.0 | 0.0 | 0.00 | 0.01 | 0.01 | 86 | 1007.4 |
| 20260507211012 | 46 | 0 | 0.0 | 0.0 | 0.00 | 0.01 | 0.01 | 86 | 1007.4 |
| 20260507210510 | 46 | 0 | 0.0 | 0.0 | 0.00 | 0.01 | 0.01 | 86 | 1007.4 |
| 20260507210011 | 46 | 0 | 0.0 | 0.0 | 0.00 | 0.01 | 0.01 | 86 | 1007.3 |
| 20260507205511 | 46 | 257 | 0.0 | 0.9 | 0.00 | 0.01 | 0.01 | 86 | 1007.3 |
| 20260507204011 | 46 | 265 | 0.9 | 2.6 | 0.00 | 0.01 | 0.01 | 85 | 1007.1 |
| 20260507203011 | 46 | 270 | 0.9 | 2.6 | 0.00 | 0.01 | 0.01 | 85 | 1006.9 |
| 20260507202510 | 47 | 266 | 0.9 | 2.6 | 0.00 | 0.01 | 0.01 | 84 | 1006.9 |
| 20260507202011 | 47 | 263 | 0.9 | 2.6 | 0.00 | 0.01 | 0.01 | 84 | 1006.9 |
| 20260507201511 | 47 | 265 | 0.9 | 2.6 | 0.00 | 0.01 | 0.01 | 84 | 1006.9 |
| 20260507201011 | 47 | 267 | 0.9 | 2.6 | 0.00 | 0.01 | 0.01 | 84 | 1006.9 |
| 20260507200511 | 47 | 267 | 0.9 | 2.6 | 0.00 | 0.01 | 0.01 | 83 | 1006.8 |
| 20260507195511 | 48 | 266 | 0.9 | 2.6 | 0.00 | 0.01 | 0.01 | 83 | 1006.8 |
| 20260507195011 | 48 | 266 | 0.9 | 4.3 | 0.00 | 0.01 | 0.01 | 82 | 1006.7 |
| 20260507194510 | 48 | 259 | 1.7 | 4.3 | 0.00 | 0.01 | 0.01 | 82 | 1006.6 |
| 20260507194010 | 48 | 256 | 1.7 | 4.3 | 0.00 | 0.01 | 0.01 | 82 | 1006.5 |
| 20260507193510 | 48 | 255 | 1.7 | 5.2 | 0.00 | 0.01 | 0.01 | 82 | 1006.5 |
| 20260507193011 | 49 | 254 | 1.7 | 5.2 | 0.00 | 0.01 | 0.01 | 82 | 1006.4 |
| 20260507192511 | 49 | 254 | 1.7 | 4.3 | 0.00 | 0.01 | 0.01 | 81 | 1006.5 |
| 20260507192011 | 49 | 258 | 1.7 | 4.3 | 0.00 | 0.01 | 0.01 | 81 | 1006.5 |
| 20260507191510 | 49 | 262 | 1.7 | 4.3 | 0.00 | 0.01 | 0.01 | 81 | 1006.4 |
| 20260507191010 | 49 | 257 | 1.7 | 4.3 | 0.00 | 0.01 | 0.01 | 81 | 1006.4 |
| 20260507190510 | 49 | 256 | 1.7 | 4.3 | 0.00 | 0.01 | 0.01 | 81 | 1006.3 |
| 20260507190010 | 49 | 258 | 1.7 | 5.2 | 0.00 | 0.01 | 0.01 | 81 | 1006.3 |
| 20260507185510 | 49 | 257 | 2.6 | 5.2 | 0.00 | 0.01 | 0.01 | 81 | 1006.3 |
| 20260507185011 | 50 | 259 | 1.7 | 4.3 | 0.00 | 0.01 | 0.01 | 81 | 1006.2 |
| 20260507184011 | 50 | 266 | 1.7 | 4.3 | 0.00 | 0.01 | 0.01 | 81 | 1006.1 |
| 20260507183510 | 50 | 266 | 1.7 | 3.5 | 0.00 | 0.01 | 0.01 | 81 | 1006.1 |
| 20260507183010 | 50 | 263 | 1.7 | 4.3 | 0.00 | 0.01 | 0.01 | 81 | 1006.1 |
| 20260507182510 | 50 | 264 | 1.7 | 5.2 | 0.00 | 0.01 | 0.01 | 81 | 1006.0 |
| 20260507181511 | 50 | 256 | 2.6 | 6.1 | 0.00 | 0.01 | 0.01 | 81 | 1006.0 |
| 20260507180510 | 50 | 266 | 2.6 | 4.3 | 0.00 | 0.01 | 0.01 | 81 | 1006.0 |
| 20260507180011 | 50 | 267 | 2.6 | 4.3 | 0.00 | 0.01 | 0.01 | 80 | 1005.9 |
| 20260507175511 | 50 | 278 | 1.7 | 3.5 | 0.00 | 0.01 | 0.01 | 80 | 1005.9 |
| 20260507175010 | 51 | 278 | 1.7 | 3.5 | 0.00 | 0.01 | 0.01 | 78 | 1005.9 |
| 20260507174010 | 51 | 268 | 0.9 | 3.5 | 0.00 | 0.01 | 0.01 | 77 | 1005.8 |
| 20260507173510 | 51 | 266 | 1.7 | 5.2 | 0.00 | 0.01 | 0.01 | 77 | 1005.8 |
| 20260507173011 | 51 | 265 | 2.6 | 5.2 | 0.00 | 0.01 | 0.01 | 75 | 1005.7 |
| 20260507172511 | 52 | 269 | 1.7 | 5.2 | 0.00 | 0.01 | 0.01 | 75 | 1005.8 |
| 20260507171509 | 53 | 262 | 2.6 | 7.0 | 0.00 | 0.01 | 0.01 | 73 | 1005.8 |
| 20260507171011 | 53 | 255 | 4.3 | 7.0 | 0.00 | 0.01 | 0.01 | 72 | 1005.7 |
| 20260507170511 | 53 | 253 | 3.5 | 7.0 | 0.00 | 0.01 | 0.01 | 70 | 1005.6 |
| 20260507170011 | 53 | 247 | 3.5 | 6.1 | 0.00 | 0.01 | 0.01 | 70 | 1005.7 |
| 20260507165010 | 53 | 239 | 3.5 | 7.8 | 0.00 | 0.01 | 0.01 | 69 | 1005.7 |
| 20260507164011 | 54 | 242 | 2.6 | 6.1 | 0.00 | 0.01 | 0.01 | 70 | 1005.6 |
| 20260507162510 | 55 | 243 | 3.5 | 7.8 | 0.00 | 0.01 | 0.01 | 72 | 1005.6 |
| 20260507162010 | 55 | 235 | 2.6 | 7.8 | 0.00 | 0.01 | 0.01 | 73 | 1005.6 |
| 20260507161510 | 54 | 236 | 3.5 | 7.8 | 0.00 | 0.01 | 0.01 | 75 | 1005.6 |
| 20260507161011 | 53 | 227 | 3.5 | 6.1 | 0.00 | 0.01 | 0.01 | 74 | 1005.6 |
| 20260507160511 | 53 | 230 | 3.5 | 6.1 | 0.00 | 0.01 | 0.01 | 74 | 1005.5 |
| 20260507160011 | 53 | 223 | 3.5 | 10.4 | 0.00 | 0.01 | 0.01 | 73 | 1005.5 |
| 20260507155510 | 53 | 223 | 3.5 | 10.4 | 0.00 | 0.01 | 0.01 | 75 | 1005.5 |
| 20260507155011 | 53 | 237 | 4.3 | 10.4 | 0.00 | 0.01 | 0.01 | 75 | 1005.5 |
| 20260507154510 | 53 | 250 | 3.5 | 10.4 | 0.00 | 0.01 | 0.01 | 74 | 1005.5 |
| 20260507152510 | 54 | 228 | 3.5 | 8.7 | 0.00 | 0.01 | 0.01 | 68 | 1005.4 |
| 20260507152010 | 54 | 230 | 3.5 | 7.0 | 0.00 | 0.01 | 0.01 | 66 | 1005.4 |
| 20260507151011 | 56 | 226 | 3.5 | 9.6 | 0.00 | 0.01 | 0.01 | 65 | 1005.4 |
| 20260507150510 | 56 | 218 | 3.5 | 9.6 | 0.00 | 0.01 | 0.01 | 65 | 1005.4 |
| 20260507145010 | 55 | 218 | 2.6 | 7.8 | 0.00 | 0.01 | 0.01 | 65 | 1005.5 |
| 20260507144510 | 55 | 205 | 2.6 | 7.0 | 0.00 | 0.01 | 0.01 | 65 | 1005.5 |
| 20260507144010 | 56 | 205 | 4.3 | 13.9 | 0.00 | 0.01 | 0.01 | 66 | 1005.5 |
| 20260507143511 | 55 | 205 | 4.3 | 13.9 | 0.00 | 0.01 | 0.01 | 66 | 1005.5 |
| 20260507143010 | 55 | 205 | 4.3 | 13.9 | 0.00 | 0.01 | 0.01 | 66 | 1005.5 |
| 20260507142511 | 55 | 205 | 4.3 | 13.9 | 0.00 | 0.01 | 0.01 | 66 | 1005.5 |
| 20260507142010 | 55 | 216 | 4.3 | 13.9 | 0.00 | 0.01 | 0.01 | 66 | 1005.5 |
| 20260507141510 | 55 | 235 | 4.3 | 13.9 | 0.00 | 0.01 | 0.01 | 65 | 1005.6 |
| 20260507141010 | 56 | 247 | 4.3 | 8.7 | 0.00 | 0.01 | 0.01 | 66 | 1005.6 |
| 20260507135510 | 56 | 233 | 4.3 | 9.6 | 0.00 | 0.01 | 0.01 | 68 | 1005.6 |
| 20260507135010 | 56 | 226 | 3.5 | 11.3 | 0.00 | 0.01 | 0.01 | 69 | 1005.6 |
| 20260507133510 | 55 | 222 | 2.6 | 7.0 | 0.00 | 0.01 | 0.01 | 70 | 1005.5 |
| 20260507131010 | 52 | 220 | 2.6 | 7.8 | 0.01 | 0.01 | 0.01 | 77 | 1005.8 |
| 20260507130511 | 52 | 216 | 2.6 | 7.0 | 0.01 | 0.01 | 0.01 | 78 | 1005.8 |
| 20260507130011 | 52 | 224 | 3.5 | 7.0 | 0.01 | 0.01 | 0.01 | 79 | 1005.9 |
| 20260507125510 | 53 | 228 | 2.6 | 5.2 | 0.01 | 0.01 | 0.01 | 81 | 1005.9 |
| 20260507125011 | 51 | 223 | 1.7 | 5.2 | 0.01 | 0.01 | 0.01 | 81 | 1006.0 |
| 20260507124510 | 51 | 219 | 1.7 | 5.2 | 0.01 | 0.01 | 0.01 | 80 | 1006.0 |
| 20260507124011 | 51 | 232 | 1.7 | 6.1 | 0.01 | 0.01 | 0.01 | 79 | 1006.1 |
| 20260507123511 | 51 | 236 | 2.6 | 6.1 | 0.01 | 0.01 | 0.01 | 76 | 1006.1 |
| 20260507122510 | 52 | 234 | 3.5 | 7.8 | 0.00 | 0.00 | 0.00 | 73 | 1006.1 |
| 20260507122011 | 53 | 240 | 3.5 | 7.8 | 0.00 | 0.00 | 0.00 | 71 | 1006.1 |
| 20260507121509 | 54 | 239 | 4.3 | 7.8 | 0.00 | 0.00 | 0.00 | 68 | 1006.0 |
| 20260507121011 | 54 | 229 | 4.3 | 7.8 | 0.00 | 0.00 | 0.00 | 64 | 1005.9 |
| 20260507120511 | 55 | 217 | 3.5 | 10.4 | 0.00 | 0.00 | 0.00 | 63 | 1005.9 |
| 20260507115510 | 56 | 224 | 3.5 | 7.8 | 0.00 | 0.00 | 0.00 | 64 | 1005.9 |
| 20260507115010 | 56 | 220 | 3.5 | 9.6 | 0.00 | 0.00 | 0.00 | 61 | 1005.8 |
| 20260507114511 | 56 | 215 | 4.3 | 11.3 | 0.00 | 0.00 | 0.00 | 62 | 1005.8 |
| 20260507114011 | 56 | 208 | 3.5 | 11.3 | 0.00 | 0.00 | 0.00 | 62 | 1005.9 |
| 20260507113511 | 56 | 203 | 3.5 | 9.6 | 0.00 | 0.00 | 0.00 | 63 | 1005.9 |
| 20260507113011 | 56 | 211 | 4.3 | 10.4 | 0.00 | 0.00 | 0.00 | 64 | 1005.9 |
| 20260507112510 | 55 | 222 | 3.5 | 11.3 | 0.00 | 0.00 | 0.00 | 65 | 1005.8 |
| 20260507112011 | 54 | 216 | 2.6 | 11.3 | 0.00 | 0.00 | 0.00 | 65 | 1005.9 |
| 20260507111011 | 55 | 209 | 2.6 | 7.8 | 0.00 | 0.00 | 0.00 | 65 | 1005.9 |
| 20260507110509 | 55 | 198 | 2.6 | 6.1 | 0.00 | 0.00 | 0.00 | 66 | 1005.9 |
| 20260507110011 | 54 | 202 | 3.5 | 8.7 | 0.00 | 0.00 | 0.00 | 66 | 1005.9 |
| 20260507105510 | 54 | 208 | 3.5 | 9.6 | 0.00 | 0.00 | 0.00 | 68 | 1006.0 |
| 20260507104510 | 52 | 232 | 2.6 | 6.1 | 0.00 | 0.00 | 0.00 | 72 | 1006.1 |
| 20260507104008 | 52 | 223 | 2.6 | 6.1 | 0.00 | 0.00 | 0.00 | 71 | 1006.2 |
| 20260507103509 | 51 | 218 | 2.6 | 7.0 | 0.00 | 0.00 | 0.00 | 72 | 1006.2 |
| 20260507103011 | 51 | 223 | 2.6 | 7.0 | 0.00 | 0.00 | 0.00 | 71 | 1006.2 |
| 20260507102509 | 51 | 224 | 1.7 | 6.1 | 0.00 | 0.00 | 0.00 | 72 | 1006.2 |
| 20260507102010 | 51 | 214 | 2.6 | 8.7 | 0.00 | 0.00 | 0.00 | 72 | 1006.2 |
| 20260507101009 | 51 | 204 | 2.6 | 7.8 | 0.00 | 0.00 | 0.00 | 71 | 1006.1 |
| 20260507100510 | 51 | 204 | 2.6 | 7.0 | 0.00 | 0.00 | 0.00 | 72 | 1006.1 |
| 20260507100011 | 51 | 212 | 2.6 | 7.8 | 0.00 | 0.00 | 0.00 | 71 | 1006.1 |
| 20260507095511 | 52 | 216 | 2.6 | 7.8 | 0.00 | 0.00 | 0.00 | 72 | 1006.1 |
| 20260507095010 | 52 | 205 | 2.6 | 7.8 | 0.00 | 0.00 | 0.00 | 73 | 1006.1 |
| 20260507093510 | 51 | 218 | 2.6 | 7.8 | 0.00 | 0.00 | 0.00 | 70 | 1006.1 |
| 20260507093010 | 51 | 227 | 3.5 | 7.8 | 0.00 | 0.00 | 0.00 | 70 | 1006.1 |
| 20260507092509 | 52 | 216 | 2.6 | 5.2 | 0.00 | 0.00 | 0.00 | 72 | 1006.1 |
| 20260507092009 | 52 | 186 | 4.3 | 6.1 | 0.00 | 0.00 | 0.00 | 72 | 1006.1 |
| 20260507091011 | 50 | 186 | 4.3 | 6.1 | 0.00 | 0.00 | 0.00 | 75 | 1006.2 |
| 20260507090510 | 50 | 186 | 4.3 | 6.1 | 0.00 | 0.00 | 0.00 | 75 | 1006.2 |
| 20260507085510 | 50 | 186 | 4.3 | 6.1 | 0.00 | 0.00 | 0.00 | 75 | 1006.2 |
| 20260507084510 | 50 | 172 | 5.2 | 6.1 | 0.00 | 0.00 | 0.00 | 76 | 1006.1 |
| 20260507084010 | 50 | 153 | 1.7 | 3.5 | 0.00 | 0.00 | 0.00 | 77 | 1006.2 |
| 20260507083510 | 50 | 153 | 1.7 | 3.5 | 0.00 | 0.00 | 0.00 | 79 | 1006.1 |
| 20260507083010 | 50 | 162 | 2.6 | 4.3 | 0.00 | 0.00 | 0.00 | 79 | 1006.2 |
| 20260507082510 | 49 | 233 | 4.3 | 7.0 | 0.00 | 0.00 | 0.00 | 79 | 1006.2 |
| 20260507082011 | 49 | 239 | 3.5 | 7.0 | 0.00 | 0.00 | 0.00 | 79 | 1006.2 |
| 20260507081510 | 49 | 215 | 2.6 | 7.0 | 0.00 | 0.00 | 0.00 | 79 | 1006.3 |
| 20260507081010 | 49 | 210 | 2.6 | 7.8 | 0.00 | 0.00 | 0.00 | 79 | 1006.3 |
| 20260507080510 | 49 | 215 | 2.6 | 7.8 | 0.00 | 0.00 | 0.00 | 81 | 1006.2 |
| 20260507080010 | 49 | 225 | 2.6 | 5.2 | 0.00 | 0.00 | 0.00 | 81 | 1006.2 |
| 20260507075509 | 48 | 234 | 1.7 | 4.3 | 0.00 | 0.00 | 0.00 | 82 | 1006.2 |
| 20260507075011 | 48 | 236 | 1.7 | 4.3 | 0.00 | 0.00 | 0.00 | 83 | 1006.2 |
| 20260507074510 | 47 | 222 | 1.7 | 4.3 | 0.00 | 0.00 | 0.00 | 83 | 1006.2 |
| 20260507074010 | 47 | 204 | 1.7 | 7.0 | 0.00 | 0.00 | 0.00 | 83 | 1006.2 |
| 20260507073510 | 47 | 194 | 1.7 | 7.0 | 0.00 | 0.00 | 0.00 | 84 | 1006.2 |
| 20260507073010 | 46 | 198 | 1.7 | 7.0 | 0.00 | 0.00 | 0.00 | 84 | 1006.2 |
| 20260507072510 | 46 | 200 | 1.7 | 6.1 | 0.00 | 0.00 | 0.00 | 84 | 1006.2 |
| 20260507072010 | 45 | 195 | 2.6 | 7.0 | 0.00 | 0.00 | 0.00 | 84 | 1006.2 |
| 20260507071510 | 45 | 202 | 2.6 | 7.0 | 0.00 | 0.00 | 0.00 | 84 | 1006.2 |
| 20260507071010 | 45 | 206 | 2.6 | 6.1 | 0.00 | 0.00 | 0.00 | 85 | 1006.2 |
| 20260507070012 | 44 | 209 | 1.7 | 6.1 | 0.00 | 0.00 | 0.00 | 85 | 1006.2 |
| 20260507064510 | 43 | 185 | 1.7 | 4.3 | 0.00 | 0.00 | 0.00 | 85 | 1006.2 |
| 20260507064011 | 43 | 188 | 1.7 | 4.3 | 0.00 | 0.00 | 0.00 | 85 | 1006.3 |
| 20260507063510 | 43 | 193 | 1.7 | 5.2 | 0.00 | 0.00 | 0.00 | 85 | 1006.2 |
| 20260507063010 | 43 | 192 | 1.7 | 6.1 | 0.00 | 0.00 | 0.00 | 85 | 1006.1 |
| 20260507062510 | 43 | 190 | 1.7 | 6.1 | 0.00 | 0.00 | 0.00 | 85 | 1006.1 |
| 20260507062010 | 43 | 186 | 1.7 | 4.3 | 0.00 | 0.00 | 0.00 | 86 | 1006.2 |
| 20260507061510 | 42 | 184 | 1.7 | 5.2 | 0.00 | 0.00 | 0.00 | 86 | 1006.2 |
| 20260507061011 | 42 | 182 | 1.7 | 5.2 | 0.00 | 0.00 | 0.00 | 86 | 1006.1 |
| 20260507060511 | 42 | 178 | 0.9 | 3.5 | 0.00 | 0.00 | 0.00 | 86 | 1006.2 |
| 20260507060010 | 41 | 190 | 0.9 | 3.5 | 0.00 | 0.00 | 0.00 | 87 | 1006.2 |
| 20260507054510 | 40 | 193 | 1.7 | 5.2 | 0.00 | 0.00 | 0.00 | 87 | 1006.2 |
| 20260507054011 | 40 | 186 | 1.7 | 5.2 | 0.00 | 0.00 | 0.00 | 86 | 1006.2 |
| 20260507053510 | 40 | 182 | 0.9 | 4.3 | 0.00 | 0.00 | 0.00 | 86 | 1006.1 |
| 20260507052509 | 40 | 202 | 0.9 | 3.5 | 0.00 | 0.00 | 0.00 | 87 | 1006.2 |